sensor_id;sensor_type;location;lat;lon;timestamp;pressure;altitude;pressure_sealevel;temperature;humidity
51715;BME280;39115;59.332;18.034;2022-12-10T00:01:07;100478.09;;;-4.39;71.77
51715;BME280;39115;59.332;18.034;2022-12-10T00:03:33;100477.25;;;-4.39;71.74
51715;BME280;39115;59.332;18.034;2022-12-10T00:05:59;100470.38;;;-4.42;71.41
51715;BME280;39115;59.332;18.034;2022-12-10T00:08:25;100472.97;;;-4.40;71.97
51715;BME280;39115;59.332;18.034;2022-12-10T00:10:50;100470.34;;;-4.40;72.11
51715;BME280;39115;59.332;18.034;2022-12-10T00:13:15;100472.97;;;-4.40;71.64
51715;BME280;39115;59.332;18.034;2022-12-10T00:15:40;100472.97;;;-4.40;72.00
51715;BME280;39115;59.332;18.034;2022-12-10T00:18:06;100476.38;;;-4.40;71.43
51715;BME280;39115;59.332;18.034;2022-12-10T00:20:31;100472.97;;;-4.40;72.03
51715;BME280;39115;59.332;18.034;2022-12-10T00:22:56;100470.31;;;-4.39;71.43
51715;BME280;39115;59.332;18.034;2022-12-10T00:25:21;100462.44;;;-4.37;71.92
51715;BME280;39115;59.332;18.034;2022-12-10T00:27:47;100477.00;;;-4.32;71.96
51715;BME280;39115;59.332;18.034;2022-12-10T00:30:12;100476.94;;;-4.29;72.02
51715;BME280;39115;59.332;18.034;2022-12-10T00:32:37;100468.25;;;-4.29;71.82
51715;BME280;39115;59.332;18.034;2022-12-10T00:35:03;100481.22;;;-4.28;71.46
51715;BME280;39115;59.332;18.034;2022-12-10T00:37:28;100482.91;;;-4.26;71.65
51715;BME280;39115;59.332;18.034;2022-12-10T00:39:53;100473.47;;;-4.29;71.97
51715;BME280;39115;59.332;18.034;2022-12-10T00:42:18;100484.72;;;-4.29;71.35
51715;BME280;39115;59.332;18.034;2022-12-10T00:44:44;100470.81;;;-4.28;72.07
51715;BME280;39115;59.332;18.034;2022-12-10T00:47:09;100476.81;;;-4.25;71.47
51715;BME280;39115;59.332;18.034;2022-12-10T00:49:34;100475.13;;;-4.26;72.03
51715;BME280;39115;59.332;18.034;2022-12-10T00:52:00;100475.09;;;-4.25;71.98
51715;BME280;39115;59.332;18.034;2022-12-10T00:54:25;100474.13;;;-4.22;71.97
51715;BME280;39115;59.332;18.034;2022-12-10T00:56:50;100472.38;;;-4.22;71.49
51715;BME280;39115;59.332;18.034;2022-12-10T00:59:15;100468.81;;;-4.19;71.99
51715;BME280;39115;59.332;18.034;2022-12-10T01:01:41;100474.84;;;-4.17;71.33
51715;BME280;39115;59.332;18.034;2022-12-10T01:04:08;100479.97;;;-4.14;71.95
51715;BME280;39115;59.332;18.034;2022-12-10T01:06:34;100480.84;;;-4.15;72.01
51715;BME280;39115;59.332;18.034;2022-12-10T01:09:01;100473.94;;;-4.16;71.53
51715;BME280;39115;59.332;18.034;2022-12-10T01:11:31;100468.69;;;-4.15;71.84
51715;BME280;39115;59.332;18.034;2022-12-10T01:13:56;100467.66;;;-4.09;71.94
51715;BME280;39115;59.332;18.034;2022-12-10T01:16:22;100477.03;;;-4.03;72.21
51715;BME280;39115;59.332;18.034;2022-12-10T01:18:48;100482.91;;;-3.98;71.58
51715;BME280;39115;59.332;18.034;2022-12-10T01:21:15;100478.59;;;-3.98;71.14
51715;BME280;39115;59.332;18.034;2022-12-10T01:23:41;100469.00;;;-3.97;71.81
51715;BME280;39115;59.332;18.034;2022-12-10T01:26:08;100471.53;;;-3.94;71.20
51715;BME280;39115;59.332;18.034;2022-12-10T01:28:34;100474.91;;;-3.92;72.01
51715;BME280;39115;59.332;18.034;2022-12-10T01:31:04;100477.50;;;-3.92;72.01
51715;BME280;39115;59.332;18.034;2022-12-10T01:33:30;100469.72;;;-3.92;71.24
51715;BME280;39115;59.332;18.034;2022-12-10T01:35:56;100474.91;;;-3.92;71.32
51715;BME280;39115;59.332;18.034;2022-12-10T01:38:21;100470.66;;;-3.94;71.84
51715;BME280;39115;59.332;18.034;2022-12-10T01:40:47;100468.03;;;-3.93;71.67
51715;BME280;39115;59.332;18.034;2022-12-10T01:43:13;100469.63;;;-3.89;71.65
51715;BME280;39115;59.332;18.034;2022-12-10T01:45:39;100469.53;;;-3.86;71.15
51715;BME280;39115;59.332;18.034;2022-12-10T01:48:04;100473.78;;;-3.83;71.19
51715;BME280;39115;59.332;18.034;2022-12-10T01:50:29;100479.81;;;-3.81;71.56
51715;BME280;39115;59.332;18.034;2022-12-10T01:52:55;100477.88;;;-3.76;71.41
51715;BME280;39115;59.332;18.034;2022-12-10T01:58:21;100476.84;;;-3.70;71.27
51715;BME280;39115;59.332;18.034;2022-12-10T02:03:51;100481.09;;;-3.68;71.77
51715;BME280;39115;59.332;18.034;2022-12-10T02:08:46;100488.00;;;-3.67;71.37
51715;BME280;39115;59.332;18.034;2022-12-10T02:11:37;100483.56;;;-3.65;71.81
51715;BME280;39115;59.332;18.034;2022-12-10T02:14:05;100487.03;;;-3.64;71.37
51715;BME280;39115;59.332;18.034;2022-12-10T02:16:34;100492.25;;;-3.64;71.71
51715;BME280;39115;59.332;18.034;2022-12-10T02:21:46;100495.69;;;-3.63;71.19
51715;BME280;39115;59.332;18.034;2022-12-10T02:24:14;100493.97;;;-3.63;71.55
51715;BME280;39115;59.332;18.034;2022-12-10T02:29:41;100493.97;;;-3.63;71.50
51715;BME280;39115;59.332;18.034;2022-12-10T02:32:17;100501.63;;;-3.58;72.09
51715;BME280;39115;59.332;18.034;2022-12-10T02:34:45;100497.25;;;-3.58;72.04
51715;BME280;39115;59.332;18.034;2022-12-10T02:37:18;100499.84;;;-3.58;71.98
51715;BME280;39115;59.332;18.034;2022-12-10T02:39:46;100497.31;;;-3.59;72.06
51715;BME280;39115;59.332;18.034;2022-12-10T02:42:14;100493.06;;;-3.62;71.59
51715;BME280;39115;59.332;18.034;2022-12-10T02:44:40;100494.72;;;-3.61;72.08
51715;BME280;39115;59.332;18.034;2022-12-10T02:47:07;100497.31;;;-3.59;71.96
51715;BME280;39115;59.332;18.034;2022-12-10T02:49:33;100494.72;;;-3.59;72.17
51715;BME280;39115;59.332;18.034;2022-12-10T02:52:05;100491.97;;;-3.56;72.12
51715;BME280;39115;59.332;18.034;2022-12-10T02:56:59;100490.03;;;-3.50;71.86
51715;BME280;39115;59.332;18.034;2022-12-10T02:59:33;100489.97;;;-3.48;71.68
51715;BME280;39115;59.332;18.034;2022-12-10T03:04:53;100487.22;;;-3.43;71.95
51715;BME280;39115;59.332;18.034;2022-12-10T03:07:45;100485.38;;;-3.40;71.58
51715;BME280;39115;59.332;18.034;2022-12-10T03:12:48;100489.59;;;-3.36;71.92
51715;BME280;39115;59.332;18.034;2022-12-10T03:15:15;100489.53;;;-3.34;71.58
51715;BME280;39115;59.332;18.034;2022-12-10T03:17:41;100494.63;;;-3.31;71.75
51715;BME280;39115;59.332;18.034;2022-12-10T03:20:08;100491.91;;;-3.28;71.79
51715;BME280;39115;59.332;18.034;2022-12-10T03:22:34;100499.56;;;-3.23;71.62
51715;BME280;39115;59.332;18.034;2022-12-10T03:25:02;100501.19;;;-3.19;71.63
51715;BME280;39115;59.332;18.034;2022-12-10T03:27:27;100501.13;;;-3.18;71.65
51715;BME280;39115;59.332;18.034;2022-12-10T03:29:54;100508.94;;;-3.18;71.86
51715;BME280;39115;59.332;18.034;2022-12-10T03:32:21;100508.88;;;-3.16;71.79
51715;BME280;39115;59.332;18.034;2022-12-10T03:34:48;100506.25;;;-3.16;71.37
51715;BME280;39115;59.332;18.034;2022-12-10T03:37:15;100507.13;;;-3.15;71.74
51715;BME280;39115;59.332;18.034;2022-12-10T03:39:41;100508.88;;;-3.16;71.42
51715;BME280;39115;59.332;18.034;2022-12-10T03:42:07;100507.13;;;-3.15;71.92
51715;BME280;39115;59.332;18.034;2022-12-10T03:44:33;100503.66;;;-3.16;71.94
51715;BME280;39115;59.332;18.034;2022-12-10T03:46:59;100501.00;;;-3.14;71.96
51715;BME280;39115;59.332;18.034;2022-12-10T03:49:24;100507.06;;;-3.14;71.97
51715;BME280;39115;59.332;18.034;2022-12-10T03:51:50;100502.69;;;-3.13;72.04
51715;BME280;39115;59.332;18.034;2022-12-10T03:54:15;100505.22;;;-3.10;71.41
51715;BME280;39115;59.332;18.034;2022-12-10T03:56:40;100507.75;;;-3.09;71.55
51715;BME280;39115;59.332;18.034;2022-12-10T03:59:06;100508.56;;;-3.07;71.74
51715;BME280;39115;59.332;18.034;2022-12-10T04:01:31;100505.94;;;-3.07;71.79
51715;BME280;39115;59.332;18.034;2022-12-10T04:03:57;100504.25;;;-3.08;71.63
51715;BME280;39115;59.332;18.034;2022-12-10T04:06:22;100499.91;;;-3.07;71.31
51715;BME280;39115;59.332;18.034;2022-12-10T04:08:47;100504.25;;;-3.08;71.59
51715;BME280;39115;59.332;18.034;2022-12-10T04:11:13;100512.00;;;-3.06;71.56
51715;BME280;39115;59.332;18.034;2022-12-10T04:13:39;100507.66;;;-3.06;71.43
51715;BME280;39115;59.332;18.034;2022-12-10T04:16:24;100506.00;;;-3.08;71.97
51715;BME280;39115;59.332;18.034;2022-12-10T04:18:59;100512.13;;;-3.09;72.03
51715;BME280;39115;59.332;18.034;2022-12-10T04:21:25;100503.41;;;-3.08;71.92
51715;BME280;39115;59.332;18.034;2022-12-10T04:24:10;100511.22;;;-3.08;71.50
51715;BME280;39115;59.332;18.034;2022-12-10T04:26:58;100510.31;;;-3.07;71.91
51715;BME280;39115;59.332;18.034;2022-12-10T04:29:24;100509.41;;;-3.06;71.85
51715;BME280;39115;59.332;18.034;2022-12-10T04:31:50;100511.00;;;-3.02;71.76
51715;BME280;39115;59.332;18.034;2022-12-10T04:34:15;100497.09;;;-3.01;71.69
51715;BME280;39115;59.332;18.034;2022-12-10T04:36:41;100511.81;;;-3.00;71.95
51715;BME280;39115;59.332;18.034;2022-12-10T04:39:06;100508.28;;;-2.99;71.76
51715;BME280;39115;59.332;18.034;2022-12-10T04:41:32;100506.53;;;-2.98;71.75
51715;BME280;39115;59.332;18.034;2022-12-10T04:43:57;100513.38;;;-2.96;71.57
51715;BME280;39115;59.332;18.034;2022-12-10T04:46:22;100515.94;;;-2.94;71.61
51715;BME280;39115;59.332;18.034;2022-12-10T04:48:48;100514.19;;;-2.94;71.58
51715;BME280;39115;59.332;18.034;2022-12-10T04:51:13;100512.56;;;-2.96;71.78
51715;BME280;39115;59.332;18.034;2022-12-10T04:53:38;100521.28;;;-2.99;72.13
51715;BME280;39115;59.332;18.034;2022-12-10T04:56:04;100507.59;;;-3.04;72.00
51715;BME280;39115;59.332;18.034;2022-12-10T04:58:30;100512.88;;;-3.06;71.44
51715;BME280;39115;59.332;18.034;2022-12-10T05:01:06;100510.19;;;-3.04;71.82
51715;BME280;39115;59.332;18.034;2022-12-10T05:03:32;100517.19;;;-3.05;71.75
51715;BME280;39115;59.332;18.034;2022-12-10T05:06:02;100515.41;;;-3.04;71.83
51715;BME280;39115;59.332;18.034;2022-12-10T05:08:27;100509.41;;;-3.06;71.49
51715;BME280;39115;59.332;18.034;2022-12-10T05:10:53;100518.91;;;-3.05;72.28
51715;BME280;39115;59.332;18.034;2022-12-10T05:13:18;100513.75;;;-3.07;71.89
51715;BME280;39115;59.332;18.034;2022-12-10T05:15:43;100515.56;;;-3.09;72.05
51715;BME280;39115;59.332;18.034;2022-12-10T05:18:08;100524.28;;;-3.10;71.58
51715;BME280;39115;59.332;18.034;2022-12-10T05:20:34;100516.53;;;-3.11;71.72
51715;BME280;39115;59.332;18.034;2022-12-10T05:22:59;100512.13;;;-3.09;72.15
51715;BME280;39115;59.332;18.034;2022-12-10T05:25:43;100519.94;;;-3.09;72.16
51715;BME280;39115;59.332;18.034;2022-12-10T05:28:24;100520.78;;;-3.09;72.32
51715;BME280;39115;59.332;18.034;2022-12-10T05:30:49;100509.59;;;-3.12;72.08
51715;BME280;39115;59.332;18.034;2022-12-10T05:33:14;100513.91;;;-3.11;72.07
51715;BME280;39115;59.332;18.034;2022-12-10T05:35:40;100517.34;;;-3.09;72.15
51715;BME280;39115;59.332;18.034;2022-12-10T05:38:05;100525.97;;;-3.09;71.67
51715;BME280;39115;59.332;18.034;2022-12-10T05:40:34;100524.19;;;-3.07;71.90
51715;BME280;39115;59.332;18.034;2022-12-10T05:43:00;100528.50;;;-3.06;72.06
51715;BME280;39115;59.332;18.034;2022-12-10T05:45:25;100524.19;;;-3.07;71.73
51715;BME280;39115;59.332;18.034;2022-12-10T05:47:50;100517.19;;;-3.05;71.67
51715;BME280;39115;59.332;18.034;2022-12-10T05:50:15;100531.09;;;-3.06;71.72
51715;BME280;39115;59.332;18.034;2022-12-10T05:52:41;100529.44;;;-3.08;71.74
51715;BME280;39115;59.332;18.034;2022-12-10T05:55:06;100523.38;;;-3.09;71.70
51715;BME280;39115;59.332;18.034;2022-12-10T05:57:32;100523.38;;;-3.09;71.55
51715;BME280;39115;59.332;18.034;2022-12-10T05:59:57;100531.94;;;-3.05;72.00
51715;BME280;39115;59.332;18.034;2022-12-10T06:02:22;100530.13;;;-3.03;72.14
51715;BME280;39115;59.332;18.034;2022-12-10T06:04:47;100533.56;;;-3.03;71.60
51715;BME280;39115;59.332;18.034;2022-12-10T06:07:13;100535.34;;;-3.03;71.67
51715;BME280;39115;59.332;18.034;2022-12-10T06:09:38;100533.63;;;-3.04;71.98
51715;BME280;39115;59.332;18.034;2022-12-10T06:12:03;100537.09;;;-3.04;71.72
51715;BME280;39115;59.332;18.034;2022-12-10T06:14:29;100537.06;;;-3.02;72.18
51715;BME280;39115;59.332;18.034;2022-12-10T06:16:54;100540.50;;;-3.02;72.01
51715;BME280;39115;59.332;18.034;2022-12-10T06:19:19;100536.16;;;-3.01;71.77
51715;BME280;39115;59.332;18.034;2022-12-10T06:21:45;100537.84;;;-3.00;72.09
51715;BME280;39115;59.332;18.034;2022-12-10T06:24:10;100534.31;;;-2.99;71.55
51715;BME280;39115;59.332;18.034;2022-12-10T06:26:35;100536.84;;;-2.96;71.94
51715;BME280;39115;59.332;18.034;2022-12-10T06:29:01;100536.09;;;-2.99;71.73
51715;BME280;39115;59.332;18.034;2022-12-10T06:31:27;100540.47;;;-3.00;72.03
51715;BME280;39115;59.332;18.034;2022-12-10T06:33:52;100544.81;;;-3.00;72.30
51715;BME280;39115;59.332;18.034;2022-12-10T06:36:19;100539.72;;;-3.04;71.81
51715;BME280;39115;59.332;18.034;2022-12-10T06:38:44;100537.13;;;-3.05;72.23
51715;BME280;39115;59.332;18.034;2022-12-10T06:41:11;100540.66;;;-3.06;71.87
51715;BME280;39115;59.332;18.034;2022-12-10T06:43:37;100531.94;;;-3.05;72.14
51715;BME280;39115;59.332;18.034;2022-12-10T06:46:09;100536.31;;;-3.06;71.86
51715;BME280;39115;59.332;18.034;2022-12-10T06:48:35;100545.81;;;-3.05;72.32
51715;BME280;39115;59.332;18.034;2022-12-10T06:51:00;100538.03;;;-3.06;71.65
51715;BME280;39115;59.332;18.034;2022-12-10T06:53:26;100547.56;;;-3.05;72.19
51715;BME280;39115;59.332;18.034;2022-12-10T06:55:51;100547.63;;;-3.07;72.21
51715;BME280;39115;59.332;18.034;2022-12-10T06:58:16;100552.91;;;-3.08;72.25
51715;BME280;39115;59.332;18.034;2022-12-10T07:00:41;100552.91;;;-3.08;72.17
51715;BME280;39115;59.332;18.034;2022-12-10T07:03:07;100544.22;;;-3.09;72.23
51715;BME280;39115;59.332;18.034;2022-12-10T07:05:32;100545.91;;;-3.08;72.18
51715;BME280;39115;59.332;18.034;2022-12-10T07:07:57;100550.16;;;-3.05;71.95
51715;BME280;39115;59.332;18.034;2022-12-10T07:10:22;100551.88;;;-3.04;71.90
51715;BME280;39115;59.332;18.034;2022-12-10T07:12:48;100550.00;;;-3.00;71.64
51715;BME280;39115;59.332;18.034;2022-12-10T07:15:13;100550.75;;;-2.97;71.75
51715;BME280;39115;59.332;18.034;2022-12-10T07:17:38;100547.19;;;-2.94;72.02
51715;BME280;39115;59.332;18.034;2022-12-10T07:20:04;100550.69;;;-2.95;72.20
51715;BME280;39115;59.332;18.034;2022-12-10T07:22:29;100548.16;;;-2.97;72.02
51715;BME280;39115;59.332;18.034;2022-12-10T07:24:54;100551.63;;;-2.96;72.03
51715;BME280;39115;59.332;18.034;2022-12-10T07:27:20;100561.09;;;-2.94;71.96
51715;BME280;39115;59.332;18.034;2022-12-10T07:29:45;100565.41;;;-2.94;72.15
51715;BME280;39115;59.332;18.034;2022-12-10T07:32:10;100565.47;;;-2.96;71.59
51715;BME280;39115;59.332;18.034;2022-12-10T07:34:35;100561.19;;;-2.97;71.89
51715;BME280;39115;59.332;18.034;2022-12-10T07:37:01;100564.66;;;-2.96;71.93
51715;BME280;39115;59.332;18.034;2022-12-10T07:39:27;100565.47;;;-2.96;71.71
51715;BME280;39115;59.332;18.034;2022-12-10T07:41:52;100567.19;;;-2.95;71.66
51715;BME280;39115;59.332;18.034;2022-12-10T07:44:18;100574.09;;;-2.94;71.84
51715;BME280;39115;59.332;18.034;2022-12-10T07:46:46;100564.66;;;-2.96;72.12
51715;BME280;39115;59.332;18.034;2022-12-10T07:49:11;100573.31;;;-2.96;71.78
51715;BME280;39115;59.332;18.034;2022-12-10T07:51:36;100572.41;;;-2.95;72.23
51715;BME280;39115;59.332;18.034;2022-12-10T07:54:02;100568.91;;;-2.94;71.96
51715;BME280;39115;59.332;18.034;2022-12-10T07:56:27;100575.00;;;-2.95;72.08
51715;BME280;39115;59.332;18.034;2022-12-10T07:58:52;100575.81;;;-2.93;72.19
51715;BME280;39115;59.332;18.034;2022-12-10T08:01:22;100573.94;;;-2.89;72.06
51715;BME280;39115;59.332;18.034;2022-12-10T08:03:48;100570.31;;;-2.85;72.07
51715;BME280;39115;59.332;18.034;2022-12-10T08:06:17;100570.25;;;-2.83;72.23
51715;BME280;39115;59.332;18.034;2022-12-10T08:08:43;100569.25;;;-2.79;71.75
51715;BME280;39115;59.332;18.034;2022-12-10T08:11:09;100570.84;;;-2.75;71.94
51715;BME280;39115;59.332;18.034;2022-12-10T08:13:34;100570.75;;;-2.72;71.96
51715;BME280;39115;59.332;18.034;2022-12-10T08:16:04;100582.88;;;-2.71;71.89
51715;BME280;39115;59.332;18.034;2022-12-10T08:18:30;100570.69;;;-2.71;71.69
51715;BME280;39115;59.332;18.034;2022-12-10T08:20:56;100575.06;;;-2.71;71.61
51715;BME280;39115;59.332;18.034;2022-12-10T08:23:21;100573.19;;;-2.67;71.75
51715;BME280;39115;59.332;18.034;2022-12-10T08:25:47;100576.59;;;-2.65;71.54
51715;BME280;39115;59.332;18.034;2022-12-10T08:28:12;100582.59;;;-2.63;71.91
51715;BME280;39115;59.332;18.034;2022-12-10T08:30:37;100576.47;;;-2.62;71.83
51715;BME280;39115;59.332;18.034;2022-12-10T08:33:02;100577.34;;;-2.62;71.73
51715;BME280;39115;59.332;18.034;2022-12-10T08:35:28;100582.50;;;-2.60;71.78
51715;BME280;39115;59.332;18.034;2022-12-10T08:37:53;100592.09;;;-2.61;71.69
51715;BME280;39115;59.332;18.034;2022-12-10T08:40:19;100588.59;;;-2.61;71.75
51715;BME280;39115;59.332;18.034;2022-12-10T08:42:44;100584.25;;;-2.61;71.92
51715;BME280;39115;59.332;18.034;2022-12-10T08:45:09;100588.53;;;-2.60;71.92
51715;BME280;39115;59.332;18.034;2022-12-10T08:47:34;100590.22;;;-2.57;71.86
51715;BME280;39115;59.332;18.034;2022-12-10T08:50:00;100589.41;;;-2.59;72.03
51715;BME280;39115;59.332;18.034;2022-12-10T08:52:25;100586.81;;;-2.59;71.72
51715;BME280;39115;59.332;18.034;2022-12-10T08:54:50;100594.50;;;-2.56;71.78
51715;BME280;39115;59.332;18.034;2022-12-10T08:57:16;100597.97;;;-2.56;71.59
51715;BME280;39115;59.332;18.034;2022-12-10T08:59:41;100600.44;;;-2.52;71.79
51715;BME280;39115;59.332;18.034;2022-12-10T09:02:08;100598.78;;;-2.53;71.69
51715;BME280;39115;59.332;18.034;2022-12-10T09:04:35;100599.69;;;-2.55;71.64
51715;BME280;39115;59.332;18.034;2022-12-10T09:07:00;100595.25;;;-2.52;71.84
51715;BME280;39115;59.332;18.034;2022-12-10T09:09:26;100599.56;;;-2.51;71.91
51715;BME280;39115;59.332;18.034;2022-12-10T09:11:52;100606.44;;;-2.49;71.94
51715;BME280;39115;59.332;18.034;2022-12-10T09:14:17;100600.28;;;-2.48;71.79
51715;BME280;39115;59.332;18.034;2022-12-10T09:16:42;100601.09;;;-2.46;71.74
51715;BME280;39115;59.332;18.034;2022-12-10T09:19:08;100599.41;;;-2.47;71.73
51715;BME280;39115;59.332;18.034;2022-12-10T09:21:34;100594.00;;;-2.42;71.99
51715;BME280;39115;59.332;18.034;2022-12-10T09:24:00;100595.72;;;-2.41;71.98
51715;BME280;39115;59.332;18.034;2022-12-10T09:26:25;100600.94;;;-2.41;71.85
51715;BME280;39115;59.332;18.034;2022-12-10T09:28:50;100603.63;;;-2.44;71.91
51715;BME280;39115;59.332;18.034;2022-12-10T09:31:16;100608.00;;;-2.45;71.91
51715;BME280;39115;59.332;18.034;2022-12-10T09:33:42;100602.75;;;-2.43;71.90
51715;BME280;39115;59.332;18.034;2022-12-10T09:36:08;100606.16;;;-2.41;71.81
51715;BME280;39115;59.332;18.034;2022-12-10T09:38:35;100614.78;;;-2.39;71.69
51715;BME280;39115;59.332;18.034;2022-12-10T09:41:47;100610.34;;;-2.37;71.96
51715;BME280;39115;59.332;18.034;2022-12-10T09:44:31;100618.16;;;-2.37;71.84
51715;BME280;39115;59.332;18.034;2022-12-10T09:46:43;100619.88;;;-2.36;71.86
51715;BME280;39115;59.332;18.034;2022-12-10T09:51:38;100615.38;;;-2.32;71.82
51715;BME280;39115;59.332;18.034;2022-12-10T09:54:04;100618.00;;;-2.32;71.66
51715;BME280;39115;59.332;18.034;2022-12-10T09:56:39;100617.09;;;-2.31;71.68
51715;BME280;39115;59.332;18.034;2022-12-10T09:59:18;100613.50;;;-2.29;71.78
51715;BME280;39115;59.332;18.034;2022-12-10T10:01:45;100615.19;;;-2.26;71.80
51715;BME280;39115;59.332;18.034;2022-12-10T10:04:12;100616.03;;;-2.26;71.86
51715;BME280;39115;59.332;18.034;2022-12-10T10:06:37;100611.63;;;-2.24;71.81
51715;BME280;39115;59.332;18.034;2022-12-10T10:09:03;100619.28;;;-2.19;71.82
51715;BME280;39115;59.332;18.034;2022-12-10T10:11:31;100609.63;;;-2.17;71.45
51715;BME280;39115;59.332;18.034;2022-12-10T10:16:23;100613.16;;;-2.18;71.78
51715;BME280;39115;59.332;18.034;2022-12-10T10:18:54;100615.75;;;-2.18;71.78
51715;BME280;39115;59.332;18.034;2022-12-10T10:21:22;100616.53;;;-2.16;71.63
51715;BME280;39115;59.332;18.034;2022-12-10T10:23:48;100614.78;;;-2.15;71.63
51715;BME280;39115;59.332;18.034;2022-12-10T10:26:13;100617.28;;;-2.12;71.74
51715;BME280;39115;59.332;18.034;2022-12-10T10:28:39;100625.91;;;-2.10;71.71
51715;BME280;39115;59.332;18.034;2022-12-10T10:31:12;100629.31;;;-2.08;71.34
51715;BME280;39115;59.332;18.034;2022-12-10T10:33:51;100623.28;;;-2.10;71.75
51715;BME280;39115;59.332;18.034;2022-12-10T10:36:22;100625.00;;;-2.09;71.61
51715;BME280;39115;59.332;18.034;2022-12-10T10:38:48;100620.44;;;-2.04;71.70
51715;BME280;39115;59.332;18.034;2022-12-10T10:41:13;100618.63;;;-2.02;71.51
51715;BME280;39115;59.332;18.034;2022-12-10T10:43:40;100621.25;;;-2.02;71.47
51715;BME280;39115;59.332;18.034;2022-12-10T10:46:11;100612.63;;;-2.04;71.54
51715;BME280;39115;59.332;18.034;2022-12-10T10:48:36;100618.56;;;-2.00;71.73
51715;BME280;39115;59.332;18.034;2022-12-10T10:51:14;100610.75;;;-2.00;71.69
51715;BME280;39115;59.332;18.034;2022-12-10T10:53:42;100610.56;;;-1.96;71.25
51715;BME280;39115;59.332;18.034;2022-12-10T10:58:33;100621.75;;;-1.92;71.57
51715;BME280;39115;59.332;18.034;2022-12-10T11:01:06;100613.13;;;-1.94;71.27
51715;BME280;39115;59.332;18.034;2022-12-10T11:03:33;100618.56;;;-2.00;71.91
51715;BME280;39115;59.332;18.034;2022-12-10T11:05:59;100617.84;;;-2.04;71.86
51715;BME280;39115;59.332;18.034;2022-12-10T11:08:25;100620.50;;;-2.05;71.64
51715;BME280;39115;59.332;18.034;2022-12-10T11:10:51;100623.03;;;-2.02;71.67
51715;BME280;39115;59.332;18.034;2022-12-10T11:13:24;100624.69;;;-2.01;71.70
51715;BME280;39115;59.332;18.034;2022-12-10T11:16:32;100620.41;;;-2.02;71.66
51715;BME280;39115;59.332;18.034;2022-12-10T11:18:40;100626.41;;;-2.00;71.73
51715;BME280;39115;59.332;18.034;2022-12-10T11:23:47;100637.75;;;-2.01;71.71
51715;BME280;39115;59.332;18.034;2022-12-10T11:36:38;100638.69;;;-2.02;71.64
51715;BME280;39115;59.332;18.034;2022-12-10T11:50:19;100630.44;;;-2.15;71.85
51715;BME280;39115;59.332;18.034;2022-12-10T11:55:45;100628.81;;;-2.18;71.94
51715;BME280;39115;59.332;18.034;2022-12-10T12:00:42;100625.06;;;-2.11;71.78
51715;BME280;39115;59.332;18.034;2022-12-10T12:13:30;100634.28;;;-2.02;71.91
51715;BME280;39115;59.332;18.034;2022-12-10T12:21:09;100634.97;;;-1.97;71.65
51715;BME280;39115;59.332;18.034;2022-12-10T12:26:21;100639.09;;;-1.91;71.50
51715;BME280;39115;59.332;18.034;2022-12-10T12:28:54;100643.34;;;-1.88;71.54
51715;BME280;39115;59.332;18.034;2022-12-10T12:31:24;100645.97;;;-1.88;71.70
51715;BME280;39115;59.332;18.034;2022-12-10T12:33:55;100637.38;;;-1.91;71.55
51715;BME280;39115;59.332;18.034;2022-12-10T12:36:24;100643.34;;;-1.88;71.45
51715;BME280;39115;59.332;18.034;2022-12-10T12:38:58;100636.34;;;-1.86;71.77
51715;BME280;39115;59.332;18.034;2022-12-10T12:44:14;100637.97;;;-1.84;71.36
51715;BME280;39115;59.332;18.034;2022-12-10T12:46:43;100638.88;;;-1.85;71.67
51715;BME280;39115;59.332;18.034;2022-12-10T12:51:54;100633.63;;;-1.83;71.38
51715;BME280;39115;59.332;18.034;2022-12-10T12:54:21;100625.72;;;-1.82;71.56
51715;BME280;39115;59.332;18.034;2022-12-10T12:59:33;100633.63;;;-1.83;71.41
51715;BME280;39115;59.332;18.034;2022-12-10T13:04:38;100641.72;;;-1.91;71.49
51715;BME280;39115;59.332;18.034;2022-12-10T13:12:29;100642.06;;;-2.00;71.63
51715;BME280;39115;59.332;18.034;2022-12-10T13:17:46;100655.34;;;-2.07;71.95
51715;BME280;39115;59.332;18.034;2022-12-10T13:20:29;100648.41;;;-2.08;71.77
51715;BME280;39115;59.332;18.034;2022-12-10T13:22:58;100646.66;;;-2.07;71.88
51715;BME280;39115;59.332;18.034;2022-12-10T13:31:05;100651.81;;;-2.05;71.59
51715;BME280;39115;59.332;18.034;2022-12-10T13:36:09;100650.34;;;-2.13;71.61
51715;BME280;39115;59.332;18.034;2022-12-10T13:38:38;100659.97;;;-2.15;71.74
51715;BME280;39115;59.332;18.034;2022-12-10T13:41:05;100657.44;;;-2.16;71.95
51715;BME280;39115;59.332;18.034;2022-12-10T13:43:53;100661.75;;;-2.15;71.90
51715;BME280;39115;59.332;18.034;2022-12-10T13:49:19;100667.13;;;-2.20;71.78
51715;BME280;39115;59.332;18.034;2022-12-10T13:51:51;100663.88;;;-2.27;71.85
51715;BME280;39115;59.332;18.034;2022-12-10T13:56:55;100661.41;;;-2.31;72.02
51715;BME280;39115;59.332;18.034;2022-12-10T14:06:58;100669.25;;;-2.31;72.01
51715;BME280;39115;59.332;18.034;2022-12-10T14:09:30;100670.13;;;-2.31;71.50
51715;BME280;39115;59.332;18.034;2022-12-10T14:12:01;100671.91;;;-2.33;71.95
51715;BME280;39115;59.332;18.034;2022-12-10T14:16:59;100671.00;;;-2.32;71.69
51715;BME280;39115;59.332;18.034;2022-12-10T14:19:24;100669.25;;;-2.31;71.93
51715;BME280;39115;59.332;18.034;2022-12-10T14:21:51;100665.72;;;-2.30;71.85
51715;BME280;39115;59.332;18.034;2022-12-10T14:24:27;100690.09;;;-2.31;71.79
51715;BME280;39115;59.332;18.034;2022-12-10T14:26:57;100673.72;;;-2.35;71.42
51715;BME280;39115;59.332;18.034;2022-12-10T14:29:23;100677.34;;;-2.39;71.86
51715;BME280;39115;59.332;18.034;2022-12-10T14:31:48;100687.94;;;-2.44;71.89
51715;BME280;39115;59.332;18.034;2022-12-10T14:34:16;100674.97;;;-2.45;71.75
51715;BME280;39115;59.332;18.034;2022-12-10T14:36:49;100676.75;;;-2.47;71.93
51715;BME280;39115;59.332;18.034;2022-12-10T14:39:19;100671.63;;;-2.49;71.71
51715;BME280;39115;59.332;18.034;2022-12-10T14:41:46;100679.53;;;-2.52;72.02